createdAt,value
2022-09-17T00:00:38.995Z,2.38
2022-09-17T00:01:41.635Z,1.45
2022-09-17T00:02:44.792Z,1.88
2022-09-17T00:03:50.233Z,2.38
2022-09-17T00:04:51.801Z,2.20
2022-09-17T00:06:00.477Z,1.60
2022-09-17T00:07:02.041Z,2.25
2022-09-17T00:08:05.450Z,2.03
2022-09-17T00:09:09.532Z,2.17
2022-09-17T00:10:11.295Z,2.10
2022-09-17T00:11:16.517Z,2.10
2022-09-17T00:12:18.060Z,1.77
2022-09-17T00:13:20.727Z,1.70
2022-09-17T00:14:22.244Z,1.50
2022-09-17T00:15:24.779Z,1.77
2022-09-17T00:16:28.968Z,3.40
2022-09-17T00:17:31.481Z,2.10
2022-09-17T00:18:33.307Z,1.83
2022-09-17T00:19:35.813Z,2.10
2022-09-17T00:20:41.183Z,1.83
2022-09-17T00:21:44.010Z,2.35
2022-09-17T00:22:45.539Z,1.70
2022-09-17T00:23:48.082Z,1.95
2022-09-17T00:24:51.018Z,1.80
2022-09-17T00:25:53.589Z,2.05
2022-09-17T00:26:55.177Z,2.20
2022-09-17T00:27:57.711Z,1.80
2022-09-17T00:29:00.014Z,1.83
2022-09-17T00:30:02.953Z,2.17
2022-09-17T00:31:07.749Z,1.70
2022-09-17T00:32:10.798Z,1.73
2022-09-17T00:33:13.195Z,1.98
2022-09-17T00:34:15.788Z,1.98
2022-09-17T00:35:17.362Z,2.07
2022-09-17T00:36:20.553Z,2.15
2022-09-17T00:37:22.596Z,1.60
2022-09-17T00:38:25.061Z,1.98
2022-09-17T00:39:26.600Z,1.75
2022-09-17T00:40:30.497Z,2.03
2022-09-17T00:41:33.963Z,3.38
2022-09-17T00:42:36.541Z,1.58
2022-09-17T00:43:40.884Z,1.75
2022-09-17T00:44:49.518Z,2.47
2022-09-17T00:45:53.324Z,1.75
2022-09-17T00:46:55.906Z,2.28
2022-09-17T00:47:58.682Z,2.28
2022-09-17T00:49:06.260Z,1.63
2022-09-17T00:50:10.393Z,1.85
2022-09-17T00:51:15.210Z,2.00
2022-09-17T00:52:46.340Z,1.92
2022-09-17T00:53:48.535Z,1.80
2022-09-17T00:54:55.859Z,1.95
2022-09-17T00:56:02.354Z,1.60
2022-09-17T00:57:05.296Z,2.10
2022-09-17T00:58:08.569Z,1.45
2022-09-17T00:59:11.292Z,1.65
2022-09-17T01:00:14.563Z,1.67
2022-09-17T01:01:17.193Z,2.25
2022-09-17T01:02:19.216Z,1.55
2022-09-17T01:03:21.992Z,1.90
2022-09-17T01:04:25.437Z,2.00
2022-09-17T01:05:33.346Z,1.88
2022-09-17T01:06:37.917Z,1.70
2022-09-17T01:07:49.813Z,3.08
2022-09-17T01:09:03.172Z,1.88
2022-09-17T01:10:15.902Z,2.08
2022-09-17T01:11:39.085Z,1.70
2022-09-17T01:12:55.732Z,1.73
2022-09-17T01:14:07.521Z,1.88
2022-09-17T01:15:20.517Z,1.48
2022-09-17T01:16:29.143Z,1.90
2022-09-17T01:17:44.021Z,1.92
2022-09-17T01:18:53.583Z,3.15
2022-09-17T01:20:22.425Z,1.90
2022-09-17T01:21:49.960Z,1.48
2022-09-17T01:23:00.366Z,1.80
2022-09-17T01:24:30.434Z,2.60
2022-09-17T01:25:38.573Z,2.03
2022-09-17T01:27:11.908Z,2.33
2022-09-17T01:28:29.686Z,1.30
2022-09-17T01:29:44.601Z,2.25
2022-09-17T01:31:02.539Z,1.88
2022-09-17T01:32:07.669Z,2.28
2022-09-17T01:33:14.098Z,1.75
2022-09-17T01:34:21.293Z,2.20
2022-09-17T01:35:31.139Z,1.90
2022-09-17T01:36:48.812Z,2.08
2022-09-17T01:38:00.692Z,2.28
2022-09-17T01:39:06.665Z,1.90
2022-09-17T01:40:14.050Z,2.00
2022-09-17T01:41:24.034Z,2.20
2022-09-17T01:42:28.856Z,2.13
2022-09-17T01:43:32.772Z,1.92
2022-09-17T01:44:39.322Z,2.50
2022-09-17T01:45:43.675Z,2.05
2022-09-17T01:46:49.684Z,1.73
2022-09-17T01:47:54.155Z,2.33
2022-09-17T01:49:00.037Z,2.00
2022-09-17T01:50:04.409Z,2.30
2022-09-17T01:51:08.627Z,2.05
2022-09-17T01:52:11.745Z,2.58
2022-09-17T01:53:15.583Z,3.03
2022-09-17T01:54:20.875Z,2.08
2022-09-17T01:55:25.782Z,2.40
2022-09-17T01:56:31.034Z,2.42
2022-09-17T01:57:36.633Z,2.78
2022-09-17T01:58:42.455Z,2.58
2022-09-17T01:59:47.719Z,2.28
2022-09-17T02:00:53.461Z,2.50
2022-09-17T02:02:02.402Z,2.28
2022-09-17T02:03:08.234Z,2.80
2022-09-17T02:04:12.679Z,2.83
2022-09-17T02:05:17.421Z,2.53
2022-09-17T02:06:23.839Z,2.35
2022-09-17T02:07:25.905Z,2.80
2022-09-17T02:08:31.255Z,2.58
2022-09-17T02:09:36.974Z,2.65
2022-09-17T02:10:42.474Z,2.35
2022-09-17T02:11:47.917Z,2.60
2022-09-17T02:12:55.433Z,3.03
2022-09-17T02:13:59.855Z,2.92
2022-09-17T02:15:04.864Z,3.22
2022-09-17T02:16:09.605Z,3.03
2022-09-17T02:17:16.712Z,2.58
2022-09-17T02:18:24.686Z,2.47
2022-09-17T02:19:29.257Z,2.13
2022-09-17T02:20:36.191Z,2.10
2022-09-17T02:21:42.244Z,3.17
2022-09-17T02:22:48.741Z,2.97
2022-09-17T02:23:57.638Z,1.90
2022-09-17T02:25:05.196Z,2.63
2022-09-17T02:26:10.951Z,2.63
2022-09-17T02:27:19.695Z,2.97
2022-09-17T02:28:27.039Z,2.95
2022-09-17T02:29:32.773Z,3.15
2022-09-17T02:30:35.338Z,2.20
2022-09-17T02:31:36.917Z,2.28
2022-09-17T02:32:41.916Z,2.17
2022-09-17T02:33:45.408Z,2.67
2022-09-17T02:34:48.468Z,3.65
2022-09-17T02:35:50.041Z,2.75
2022-09-17T02:36:52.602Z,2.40
2022-09-17T02:37:54.232Z,2.90
2022-09-17T02:39:00.471Z,2.67
2022-09-17T02:40:02.450Z,2.63
2022-09-17T02:41:12.372Z,2.67
2022-09-17T02:42:22.155Z,2.85
2022-09-17T02:43:29.427Z,2.70
2022-09-17T02:44:37.603Z,2.67
2022-09-17T02:45:47.804Z,3.10
2022-09-17T02:47:20.880Z,2.90
2022-09-17T02:48:39.869Z,2.67
2022-09-17T02:49:59.232Z,3.00
2022-09-17T02:51:13.450Z,2.97
2022-09-17T02:52:20.253Z,2.30
2022-09-17T02:53:33.351Z,2.47
2022-09-17T02:54:41.188Z,2.47
2022-09-17T02:55:47.806Z,2.60
2022-09-17T02:56:55.401Z,2.28
2022-09-17T02:58:00.781Z,2.88
2022-09-17T02:59:09.898Z,3.10
2022-09-17T03:00:14.482Z,2.53
2022-09-17T03:01:24.482Z,2.85
2022-09-17T03:02:30.445Z,2.47
2022-09-17T03:03:37.115Z,2.60
2022-09-17T03:04:38.743Z,2.50
2022-09-17T03:05:42.717Z,2.65
2022-09-17T03:06:45.912Z,2.55
2022-09-17T03:07:48.623Z,2.85
2022-09-17T03:08:50.315Z,2.70
2022-09-17T03:09:53.018Z,4.13
2022-09-17T03:10:54.537Z,3.20
2022-09-17T03:11:57.089Z,2.78
2022-09-17T03:12:58.689Z,3.38
2022-09-17T03:14:01.197Z,3.05
2022-09-17T03:15:03.450Z,2.53
2022-09-17T03:16:06.740Z,2.38
2022-09-17T03:17:08.444Z,2.90
2022-09-17T03:18:11.141Z,2.25
2022-09-17T03:19:14.033Z,3.05
2022-09-17T03:20:16.862Z,2.47
2022-09-17T03:21:18.376Z,2.70
2022-09-17T03:22:20.882Z,2.55
2022-09-17T03:23:22.594Z,4.03
2022-09-17T03:24:25.137Z,2.72
2022-09-17T03:25:26.659Z,2.80
2022-09-17T03:26:29.145Z,3.25
2022-09-17T03:27:30.648Z,2.70
2022-09-17T03:28:33.222Z,2.53
2022-09-17T03:29:34.743Z,2.38
2022-09-17T03:30:37.239Z,2.47
2022-09-17T03:31:38.972Z,2.50
2022-09-17T03:32:41.508Z,2.80
2022-09-17T03:33:43.022Z,2.45
2022-09-17T03:34:47.026Z,3.38
2022-09-17T03:35:48.795Z,2.95
2022-09-17T03:36:51.380Z,2.53
2022-09-17T03:37:52.898Z,3.33
2022-09-17T03:38:55.853Z,2.63
2022-09-17T03:39:57.456Z,2.60
2022-09-17T03:41:00.656Z,2.75
2022-09-17T03:42:02.220Z,2.42
2022-09-17T03:43:05.946Z,3.30
2022-09-17T03:44:07.592Z,2.83
2022-09-17T03:45:11.035Z,2.90
2022-09-17T03:46:12.625Z,2.50
2022-09-17T03:47:16.758Z,2.85
2022-09-17T03:48:18.312Z,3.10
2022-09-17T03:49:20.837Z,2.97
2022-09-17T03:50:23.833Z,2.78
2022-09-17T03:51:26.818Z,2.72
2022-09-17T03:52:34.676Z,2.63
2022-09-17T03:53:37.384Z,2.90
2022-09-17T03:54:38.954Z,2.85
2022-09-17T03:55:41.752Z,2.55
2022-09-17T03:56:43.288Z,2.47
2022-09-17T03:57:45.807Z,2.97
2022-09-17T03:58:50.705Z,3.33
2022-09-17T03:59:53.203Z,2.92
2022-09-17T04:00:57.603Z,2.47
2022-09-17T04:02:00.262Z,2.80
2022-09-17T04:03:01.953Z,2.50
2022-09-17T04:04:04.925Z,2.45
2022-09-17T04:05:08.220Z,2.47
2022-09-17T04:06:12.371Z,3.38
2022-09-17T04:07:13.988Z,2.72
2022-09-17T04:08:16.630Z,2.78
2022-09-17T04:09:18.170Z,2.20
2022-09-17T04:10:20.679Z,2.85
2022-09-17T04:11:22.639Z,2.88
2022-09-17T04:12:25.157Z,3.10
2022-09-17T04:13:26.665Z,2.50
2022-09-17T04:14:29.195Z,2.42
2022-09-17T04:15:30.733Z,2.25
2022-09-17T04:16:33.261Z,2.65
2022-09-17T04:17:34.867Z,2.42
2022-09-17T04:18:37.339Z,2.22
2022-09-17T04:19:38.825Z,2.63
2022-09-17T04:20:41.393Z,2.22
2022-09-17T04:21:44.277Z,2.20
2022-09-17T04:22:46.779Z,2.67
2022-09-17T04:23:48.315Z,2.55
2022-09-17T04:24:50.847Z,2.33
2022-09-17T04:25:52.680Z,2.55
2022-09-17T04:26:55.169Z,2.33
2022-09-17T04:27:56.710Z,2.75
2022-09-17T04:28:59.202Z,3.15
2022-09-17T04:30:01.677Z,3.08
2022-09-17T04:31:04.270Z,2.20
2022-09-17T04:32:06.012Z,2.58
2022-09-17T04:33:08.523Z,2.80
2022-09-17T04:34:10.164Z,2.80
2022-09-17T04:35:13.117Z,2.38
2022-09-17T04:36:14.649Z,2.47
2022-09-17T04:37:19.702Z,2.60
2022-09-17T04:38:22.103Z,2.38
2022-09-17T04:39:24.650Z,2.33
2022-09-17T04:40:26.983Z,2.03
2022-09-17T04:41:29.549Z,2.40
2022-09-17T04:42:31.078Z,2.85
2022-09-17T04:43:33.555Z,3.90
2022-09-17T04:44:35.078Z,2.33
2022-09-17T04:45:37.632Z,2.10
2022-09-17T04:46:39.239Z,2.10
2022-09-17T04:47:41.956Z,1.88
2022-09-17T04:48:43.514Z,2.28
2022-09-17T04:49:45.982Z,2.10
2022-09-17T04:50:47.544Z,2.40
2022-09-17T04:51:50.054Z,2.35
2022-09-17T04:52:52.921Z,2.50
2022-09-17T04:53:55.422Z,2.20
2022-09-17T04:54:56.965Z,1.92
2022-09-17T04:55:59.438Z,2.53
2022-09-17T04:57:01.016Z,1.70
2022-09-17T04:58:04.405Z,2.35
2022-09-17T04:59:05.936Z,2.08
2022-09-17T05:00:10.348Z,2.60
2022-09-17T05:01:13.848Z,2.35
2022-09-17T05:02:15.572Z,2.28
2022-09-17T05:03:18.073Z,2.42
2022-09-17T05:04:19.596Z,2.60
2022-09-17T05:05:22.737Z,2.88
2022-09-17T05:06:25.235Z,2.60
2022-09-17T05:07:26.731Z,3.25
2022-09-17T05:08:30.551Z,2.63
2022-09-17T05:09:32.047Z,3.17
2022-09-17T05:10:34.521Z,2.58
2022-09-17T05:11:36.047Z,2.67
2022-09-17T05:12:38.673Z,2.38
2022-09-17T05:13:40.211Z,2.35
2022-09-17T05:14:42.737Z,2.20
2022-09-17T05:15:44.947Z,2.58
2022-09-17T05:16:47.628Z,2.53
2022-09-17T05:17:49.238Z,2.60
2022-09-17T05:18:51.769Z,3.10
2022-09-17T05:19:53.309Z,2.25
2022-09-17T05:20:56.224Z,2.63
2022-09-17T05:21:57.780Z,1.98
2022-09-17T05:23:00.269Z,2.13
2022-09-17T05:24:03.546Z,2.53
2022-09-17T05:25:06.969Z,2.22
2022-09-17T05:26:08.492Z,2.20
2022-09-17T05:27:11.136Z,2.10
2022-09-17T05:28:12.867Z,2.17
2022-09-17T05:29:15.335Z,1.95
2022-09-17T05:30:16.972Z,2.15
2022-09-17T05:31:19.513Z,2.50
2022-09-17T05:32:21.430Z,2.83
2022-09-17T05:33:23.903Z,2.92
2022-09-17T05:34:25.458Z,2.22
2022-09-17T05:35:28.217Z,2.25
2022-09-17T05:36:29.725Z,2.67
2022-09-17T05:37:32.401Z,3.75
2022-09-17T05:38:33.916Z,2.03
2022-09-17T05:39:37.751Z,1.98
2022-09-17T05:40:40.208Z,2.80
2022-09-17T05:41:41.761Z,2.65
2022-09-17T05:42:44.263Z,2.47
2022-09-17T05:43:45.784Z,3.30
2022-09-17T05:44:48.309Z,2.65
2022-09-17T05:45:50.009Z,2.40
2022-09-17T05:46:54.270Z,2.20
2022-09-17T05:47:56.555Z,2.38
2022-09-17T05:48:59.080Z,1.90
2022-09-17T05:50:00.715Z,2.20
2022-09-17T05:51:03.414Z,2.10
2022-09-17T05:52:05.512Z,1.75
2022-09-17T05:53:09.686Z,2.22
2022-09-17T05:54:11.657Z,1.95
2022-09-17T05:55:15.627Z,1.77
2022-09-17T05:56:17.184Z,2.30
2022-09-17T05:57:20.408Z,2.10
2022-09-17T05:58:21.903Z,2.22
2022-09-17T05:59:24.373Z,3.20
2022-09-17T06:00:25.901Z,2.15
2022-09-17T06:01:28.815Z,2.08
2022-09-17T06:02:30.419Z,2.28
2022-09-17T06:03:32.941Z,2.17
2022-09-17T06:04:35.170Z,1.73
2022-09-17T06:05:37.794Z,2.10
2022-09-17T06:06:41.440Z,2.03
2022-09-17T06:07:43.927Z,2.13
2022-09-17T06:08:45.490Z,2.35
2022-09-17T06:09:48.000Z,1.70
2022-09-17T06:10:50.932Z,2.22
2022-09-17T06:11:53.416Z,2.13
2022-09-17T06:12:58.655Z,2.08
2022-09-17T06:14:01.540Z,1.80
2022-09-17T06:15:03.255Z,1.77
2022-09-17T06:16:06.355Z,2.05
2022-09-17T06:17:07.891Z,1.95
2022-09-17T06:18:10.445Z,2.25
2022-09-17T06:19:13.151Z,1.52
2022-09-17T06:20:16.218Z,1.90
2022-09-17T06:21:18.938Z,1.90
2022-09-17T06:22:20.500Z,2.88
2022-09-17T06:23:24.050Z,1.75
2022-09-17T06:24:25.993Z,2.35
2022-09-17T06:25:29.407Z,1.80
2022-09-17T06:26:32.463Z,2.08
2022-09-17T06:27:36.140Z,1.75
2022-09-17T06:28:41.482Z,1.75
2022-09-17T06:29:44.402Z,2.10
2022-09-17T06:30:45.915Z,1.65
2022-09-17T06:31:49.179Z,2.05
2022-09-17T06:32:51.766Z,1.92
2022-09-17T06:33:54.335Z,1.48
2022-09-17T06:34:57.277Z,2.03
2022-09-17T06:36:00.875Z,1.40
2022-09-17T06:37:02.369Z,2.08
2022-09-17T06:38:05.393Z,2.67
2022-09-17T06:39:07.189Z,1.77
2022-09-17T06:40:11.041Z,1.60
2022-09-17T06:41:14.457Z,1.83
2022-09-17T06:42:18.300Z,1.92
2022-09-17T06:43:20.338Z,1.63
2022-09-17T06:44:22.829Z,1.33
2022-09-17T06:45:24.445Z,1.60
2022-09-17T06:46:27.015Z,1.95
2022-09-17T06:47:28.550Z,1.90
2022-09-17T06:48:31.984Z,1.85
2022-09-17T06:49:33.588Z,1.73
2022-09-17T06:50:40.585Z,1.83
2022-09-17T06:51:45.132Z,1.65
2022-09-17T06:52:49.614Z,1.55
2022-09-17T06:53:52.116Z,1.52
2022-09-17T06:54:53.627Z,1.60
2022-09-17T06:56:00.373Z,1.33
2022-09-17T06:57:06.226Z,1.90
2022-09-17T06:58:10.731Z,1.70
2022-09-17T06:59:12.253Z,1.27
2022-09-17T07:00:15.743Z,1.42
2022-09-17T07:01:18.326Z,1.63
2022-09-17T07:02:21.448Z,1.52
2022-09-17T07:03:23.463Z,1.45
2022-09-17T07:04:26.085Z,1.95
2022-09-17T07:05:30.150Z,1.25
2022-09-17T07:06:31.669Z,2.22
2022-09-17T07:07:35.650Z,1.40
2022-09-17T07:08:38.056Z,1.52
2022-09-17T07:09:40.576Z,1.42
2022-09-17T07:10:43.052Z,1.27
2022-09-17T07:11:44.669Z,1.63
2022-09-17T07:12:49.949Z,1.60
2022-09-17T07:13:54.010Z,1.83
2022-09-17T07:14:55.534Z,1.63
2022-09-17T07:15:59.946Z,1.60
2022-09-17T07:17:01.681Z,1.50
2022-09-17T07:18:09.609Z,1.33
2022-09-17T07:19:14.673Z,2.15
2022-09-17T07:20:17.493Z,1.30
2022-09-17T07:21:20.028Z,1.20
2022-09-17T07:22:24.626Z,1.90
2022-09-17T07:23:28.712Z,1.38
2022-09-17T07:24:32.979Z,1.33
2022-09-17T07:25:34.728Z,1.40
2022-09-17T07:26:37.220Z,1.40
2022-09-17T07:27:38.783Z,1.80
2022-09-17T07:28:41.861Z,1.38
2022-09-17T07:29:44.755Z,2.55
2022-09-17T07:30:47.321Z,1.00
2022-09-17T07:31:49.028Z,1.80
2022-09-17T07:32:51.636Z,1.63
2022-09-17T07:33:53.239Z,1.80
2022-09-17T07:34:55.743Z,1.63
2022-09-17T07:35:59.903Z,1.50
2022-09-17T07:37:01.487Z,1.65
2022-09-17T07:38:04.027Z,1.33
2022-09-17T07:39:06.720Z,1.30
2022-09-17T07:40:10.056Z,1.40
2022-09-17T07:41:13.637Z,1.00
2022-09-17T07:42:16.183Z,1.52
2022-09-17T07:43:17.757Z,1.63
2022-09-17T07:44:22.032Z,1.20
2022-09-17T07:45:24.993Z,1.58
2022-09-17T07:46:27.525Z,1.30
2022-09-17T07:47:29.148Z,2.08
2022-09-17T07:48:32.128Z,1.23
2022-09-17T07:49:33.643Z,1.20
2022-09-17T07:50:36.129Z,1.30
2022-09-17T07:51:39.166Z,1.13
2022-09-17T07:52:46.927Z,1.50
2022-09-17T07:53:51.004Z,1.50
2022-09-17T07:54:53.540Z,1.30
2022-09-17T07:55:56.612Z,1.35
2022-09-17T07:56:59.091Z,1.42
2022-09-17T07:58:00.634Z,1.40
2022-09-17T07:59:03.711Z,1.45
2022-09-17T08:00:06.651Z,1.58
2022-09-17T08:01:12.408Z,1.60
2022-09-17T08:02:14.155Z,1.30
2022-09-17T08:03:16.810Z,2.00
2022-09-17T08:04:18.480Z,1.40
2022-09-17T08:05:21.093Z,1.55
2022-09-17T08:06:25.930Z,1.10
2022-09-17T08:07:27.481Z,1.25
2022-09-17T08:08:31.049Z,1.27
2022-09-17T08:09:32.797Z,1.35
2022-09-17T08:10:35.963Z,1.45
2022-09-17T08:11:54.919Z,1.67
2022-09-17T08:12:59.125Z,1.42
2022-09-17T08:14:00.783Z,1.88
2022-09-17T08:15:03.444Z,1.20
2022-09-17T08:16:07.200Z,1.33
2022-09-17T08:17:11.280Z,1.38
2022-09-17T08:18:15.956Z,1.08
2022-09-17T08:19:18.957Z,1.30
2022-09-17T08:20:20.522Z,1.77
2022-09-17T08:21:23.884Z,1.48
2022-09-17T08:22:25.531Z,1.25
2022-09-17T08:23:29.254Z,1.33
2022-09-17T08:24:30.804Z,1.55
2022-09-17T08:25:33.325Z,1.48
2022-09-17T08:26:34.984Z,1.38
2022-09-17T08:27:38.739Z,1.27
2022-09-17T08:28:40.387Z,1.40
2022-09-17T08:29:42.944Z,1.60
2022-09-17T08:30:44.523Z,1.40
2022-09-17T08:31:47.064Z,1.60
2022-09-17T08:32:50.006Z,1.35
2022-09-17T08:33:52.729Z,1.80
2022-09-17T08:34:58.071Z,1.30
2022-09-17T08:36:01.249Z,1.90
2022-09-17T08:37:03.112Z,1.48
2022-09-17T08:38:05.643Z,1.58
2022-09-17T08:39:10.082Z,1.50
2022-09-17T08:40:15.786Z,1.35
2022-09-17T08:41:24.381Z,1.30
2022-09-17T08:42:31.299Z,1.00
2022-09-17T08:43:35.358Z,1.55
2022-09-17T08:44:41.480Z,1.23
2022-09-17T08:45:43.156Z,1.33
2022-09-17T08:46:48.808Z,1.70
2022-09-17T08:47:54.751Z,1.20
2022-09-17T08:49:02.460Z,1.38
2022-09-17T08:50:06.958Z,1.55
2022-09-17T08:51:13.979Z,0.82
2022-09-17T08:52:44.716Z,1.67
2022-09-17T08:53:58.775Z,1.30
2022-09-17T08:55:07.309Z,1.00
2022-09-17T08:56:13.300Z,1.20
2022-09-17T08:57:19.125Z,1.30
2022-09-17T08:58:43.459Z,1.63
2022-09-17T08:59:49.976Z,1.02
2022-09-17T09:00:55.926Z,1.48
2022-09-17T09:02:01.897Z,1.15
2022-09-17T09:03:16.350Z,1.55
2022-09-17T09:04:45.998Z,1.38
2022-09-17T09:05:48.708Z,1.10
2022-09-17T09:06:53.626Z,1.35
2022-09-17T09:07:58.585Z,1.80
2022-09-17T09:09:03.640Z,1.75
2022-09-17T09:10:13.305Z,1.30
2022-09-17T09:11:17.229Z,1.13
2022-09-17T09:12:24.268Z,1.15
2022-09-17T09:13:28.701Z,1.05
2022-09-17T09:14:34.072Z,1.52
2022-09-17T09:15:38.413Z,0.88
2022-09-17T09:16:42.478Z,0.90
2022-09-17T09:17:46.689Z,1.10
2022-09-17T09:18:54.093Z,1.13
2022-09-17T09:19:56.352Z,1.15
2022-09-17T09:21:05.962Z,1.00
2022-09-17T09:22:23.637Z,0.98
2022-09-17T09:23:33.061Z,1.25
2022-09-17T09:24:40.535Z,0.98
2022-09-17T09:25:53.727Z,0.93
2022-09-17T09:27:03.962Z,0.90
2022-09-17T09:28:15.036Z,0.90
2022-09-17T09:29:23.896Z,0.90
2022-09-17T09:30:26.856Z,1.30
2022-09-17T09:31:41.653Z,1.30
2022-09-17T09:32:56.388Z,1.10
2022-09-17T09:34:01.197Z,1.25
2022-09-17T09:35:13.724Z,1.08
2022-09-17T09:36:21.408Z,1.25
2022-09-17T09:37:27.924Z,1.00
2022-09-17T09:38:32.849Z,0.80
2022-09-17T09:39:41.222Z,1.00
2022-09-17T09:40:50.489Z,1.05
2022-09-17T09:41:55.416Z,0.90
2022-09-17T09:43:00.946Z,0.90
2022-09-17T09:44:05.786Z,0.70
2022-09-17T09:45:13.978Z,0.73
2022-09-17T09:46:30.397Z,0.95
2022-09-17T09:47:44.530Z,1.25
2022-09-17T09:48:54.281Z,0.82
2022-09-17T09:50:08.970Z,0.82
2022-09-17T09:51:18.285Z,0.98
2022-09-17T09:52:38.793Z,1.00
2022-09-17T09:53:48.959Z,1.13
2022-09-17T09:55:01.333Z,1.98
2022-09-17T09:56:14.818Z,0.80
2022-09-17T09:57:20.047Z,1.08
2022-09-17T09:58:28.363Z,1.00
2022-09-17T09:59:30.855Z,1.00
2022-09-17T10:00:36.423Z,1.77
2022-09-17T10:01:41.665Z,0.90
2022-09-17T10:02:43.583Z,1.00
2022-09-17T10:03:46.949Z,1.33
2022-09-17T10:04:53.239Z,0.75
2022-09-17T10:05:58.826Z,1.13
2022-09-17T10:07:04.117Z,1.20
2022-09-17T10:08:12.595Z,0.70
2022-09-17T10:09:17.578Z,0.80
2022-09-17T10:10:19.384Z,0.93
2022-09-17T10:11:24.264Z,1.55
2022-09-17T10:12:25.762Z,1.10
2022-09-17T10:13:30.105Z,1.10
2022-09-17T10:14:33.831Z,0.90
2022-09-17T10:15:35.607Z,0.98
2022-09-17T10:16:38.205Z,0.77
2022-09-17T10:17:39.881Z,1.00
2022-09-17T10:18:42.360Z,1.10
2022-09-17T10:19:45.372Z,0.77
2022-09-17T10:20:52.796Z,1.08
2022-09-17T10:21:55.827Z,1.02
2022-09-17T10:22:58.376Z,0.75
2022-09-17T10:24:00.496Z,0.70
2022-09-17T10:25:05.289Z,0.85
2022-09-17T10:26:07.836Z,0.80
2022-09-17T10:27:13.746Z,0.60
2022-09-17T10:28:44.252Z,0.70
2022-09-17T10:29:47.397Z,0.95
2022-09-17T10:30:57.179Z,1.15
2022-09-17T10:31:59.104Z,0.77
2022-09-17T10:33:23.172Z,0.90
2022-09-17T10:34:25.737Z,0.95
2022-09-17T10:35:29.484Z,1.48
2022-09-17T10:36:40.805Z,1.25
2022-09-17T10:37:46.758Z,0.93
2022-09-17T10:38:48.736Z,0.88
2022-09-17T10:39:51.346Z,0.77
2022-09-17T10:40:52.990Z,0.80
2022-09-17T10:41:56.328Z,0.60
2022-09-17T10:43:20.981Z,0.70
2022-09-17T10:44:24.918Z,0.70
2022-09-17T10:45:29.617Z,1.08
2022-09-17T10:46:34.009Z,0.70
2022-09-17T10:47:37.088Z,0.60
2022-09-17T10:48:43.065Z,1.83
2022-09-17T10:49:48.186Z,0.75
2022-09-17T10:50:50.632Z,1.40
2022-09-17T10:51:53.363Z,0.82
2022-09-17T10:52:57.592Z,0.80
2022-09-17T10:54:26.254Z,0.77
2022-09-17T10:55:30.090Z,1.20
2022-09-17T10:56:36.299Z,1.60
2022-09-17T10:57:58.595Z,5.72
2022-09-17T10:59:12.765Z,1.35
2022-09-17T11:00:18.547Z,1.40
2022-09-17T11:01:30.231Z,0.80
2022-09-17T11:03:17.312Z,0.65
2022-09-17T11:04:27.686Z,0.57
2022-09-17T11:05:48.209Z,0.55
2022-09-17T11:07:19.256Z,0.57
2022-09-17T11:08:24.817Z,0.60
2022-09-17T11:09:35.003Z,0.80
2022-09-17T11:10:43.402Z,0.50
2022-09-17T11:11:54.201Z,0.40
2022-09-17T11:13:04.403Z,0.75
2022-09-17T11:14:17.606Z,0.60
2022-09-17T11:15:30.522Z,0.55
2022-09-17T11:16:41.154Z,0.60
2022-09-17T11:17:57.671Z,0.70
2022-09-17T11:19:08.383Z,0.50
2022-09-17T11:20:21.356Z,0.70
2022-09-17T11:21:31.866Z,0.60
2022-09-17T11:22:46.912Z,0.90
2022-09-17T11:24:06.233Z,0.93
2022-09-17T11:25:44.523Z,0.40
2022-09-17T11:26:49.012Z,0.60
2022-09-17T11:28:00.861Z,0.80
2022-09-17T11:29:12.827Z,0.73
2022-09-17T11:30:20.210Z,0.40
2022-09-17T11:31:30.828Z,0.50
2022-09-17T11:32:46.679Z,0.30
2022-09-17T11:33:59.862Z,0.63
2022-09-17T11:35:05.607Z,0.40
2022-09-17T11:36:12.251Z,0.50
2022-09-17T11:37:19.483Z,0.60
2022-09-17T11:38:25.481Z,0.70
2022-09-17T11:39:33.248Z,0.65
2022-09-17T11:40:38.925Z,0.60
2022-09-17T11:41:43.744Z,1.33
2022-09-17T11:42:49.424Z,0.57
2022-09-17T11:44:01.473Z,0.52
2022-09-17T11:45:06.204Z,0.70
2022-09-17T11:46:11.083Z,0.60
2022-09-17T11:47:15.507Z,0.75
2022-09-17T11:48:20.652Z,0.70
2022-09-17T11:49:27.647Z,0.65
2022-09-17T11:50:33.506Z,0.80
2022-09-17T11:51:37.515Z,0.70
2022-09-17T11:52:43.957Z,0.70
2022-09-17T11:53:49.277Z,0.50
2022-09-17T11:54:57.769Z,0.65
2022-09-17T11:56:02.451Z,0.70
2022-09-17T11:57:09.844Z,0.50
2022-09-17T11:58:15.321Z,0.50
2022-09-17T11:59:21.803Z,0.60
2022-09-17T12:00:24.433Z,0.63
2022-09-17T12:01:30.733Z,0.70
2022-09-17T12:02:43.924Z,1.00
2022-09-17T12:03:51.849Z,0.82
2022-09-17T12:04:59.696Z,0.50
2022-09-17T12:06:06.169Z,0.70
2022-09-17T12:07:23.256Z,0.52
2022-09-17T12:08:28.007Z,0.40
2022-09-17T12:09:33.389Z,0.57
2022-09-17T12:10:41.514Z,1.00
2022-09-17T12:11:49.461Z,0.60
2022-09-17T12:12:57.952Z,0.50
2022-09-17T12:14:04.931Z,0.65
2022-09-17T12:15:14.635Z,0.60
2022-09-17T12:16:20.695Z,0.57
2022-09-17T12:17:24.853Z,0.93
2022-09-17T12:18:33.823Z,0.50
2022-09-17T12:19:39.823Z,1.58
2022-09-17T12:20:46.062Z,0.60
2022-09-17T12:21:50.299Z,0.82
2022-09-17T12:22:52.584Z,0.40
2022-09-17T12:23:58.516Z,0.73
2022-09-17T12:25:01.573Z,0.60
2022-09-17T12:26:14.295Z,0.65
2022-09-17T12:27:29.223Z,0.70
2022-09-17T12:28:35.011Z,0.50
2022-09-17T12:30:03.018Z,0.50
2022-09-17T12:31:11.967Z,0.47
2022-09-17T12:32:31.177Z,0.65
2022-09-17T12:33:35.603Z,0.68
2022-09-17T12:34:45.823Z,0.60
2022-09-17T12:36:05.162Z,0.50
2022-09-17T12:37:12.816Z,0.50
2022-09-17T12:38:33.165Z,0.60
2022-09-17T12:40:07.931Z,0.50
2022-09-17T12:41:16.572Z,0.63
2022-09-17T12:42:27.573Z,0.70
2022-09-17T12:43:40.924Z,0.60
2022-09-17T12:45:05.092Z,0.70
2022-09-17T12:46:15.889Z,1.05
2022-09-17T12:47:48.827Z,0.50
2022-09-17T12:49:16.269Z,0.57
2022-09-17T12:50:21.805Z,1.10
2022-09-17T12:51:40.105Z,0.50
2022-09-17T12:52:52.598Z,0.50
2022-09-17T12:54:02.099Z,0.57
2022-09-17T12:55:27.344Z,0.50
2022-09-17T12:56:42.665Z,0.50
2022-09-17T12:57:51.169Z,0.50
2022-09-17T12:59:06.904Z,0.57
2022-09-17T13:00:11.203Z,0.50
2022-09-17T13:01:19.387Z,0.40
2022-09-17T13:02:26.129Z,0.38
2022-09-17T13:03:31.421Z,0.40
2022-09-17T13:05:00.910Z,0.30
2022-09-17T13:06:42.569Z,0.30
2022-09-17T13:07:57.228Z,0.50
2022-09-17T13:09:07.394Z,0.40
2022-09-17T13:10:34.624Z,0.40
2022-09-17T13:11:56.251Z,0.65
2022-09-17T13:13:04.053Z,0.50
2022-09-17T13:14:12.706Z,0.45
2022-09-17T13:15:48.037Z,0.50
2022-09-17T13:16:53.546Z,0.95
2022-09-17T13:18:13.247Z,0.52
2022-09-17T13:19:30.086Z,0.50
2022-09-17T13:20:33.712Z,0.50
2022-09-17T13:21:40.430Z,0.30
2022-09-17T13:22:45.230Z,0.70
2022-09-17T13:23:49.849Z,0.80
2022-09-17T13:25:03.345Z,0.50
2022-09-17T13:26:06.747Z,0.68
2022-09-17T13:27:20.338Z,0.50
2022-09-17T13:28:22.849Z,0.60
2022-09-17T13:29:59.014Z,0.60
2022-09-17T13:31:01.612Z,0.50
2022-09-17T13:32:04.349Z,0.40
2022-09-17T13:33:05.906Z,0.50
2022-09-17T13:34:29.628Z,0.60
2022-09-17T13:35:49.006Z,0.38
2022-09-17T13:36:52.189Z,0.43
2022-09-17T13:37:55.876Z,0.40
2022-09-17T13:38:58.812Z,0.50
2022-09-17T13:40:02.552Z,0.68
2022-09-17T13:41:18.309Z,1.33
2022-09-17T13:42:28.364Z,0.40
2022-09-17T13:43:30.073Z,0.90
2022-09-17T13:44:35.263Z,0.50
2022-09-17T13:46:11.117Z,0.50
2022-09-17T13:47:27.144Z,0.50
2022-09-17T13:48:30.064Z,0.60
2022-09-17T13:49:32.933Z,0.45
2022-09-17T13:50:36.191Z,0.40
2022-09-17T13:51:49.975Z,0.70
2022-09-17T13:52:53.537Z,0.60
2022-09-17T13:53:55.771Z,0.60
2022-09-17T13:54:58.358Z,0.50
2022-09-17T13:56:01.119Z,0.80
2022-09-17T13:57:09.050Z,0.80
2022-09-17T13:58:13.890Z,0.98
2022-09-17T13:59:19.367Z,0.82
2022-09-17T14:00:51.315Z,0.40
2022-09-17T14:02:02.218Z,0.60
2022-09-17T14:03:38.347Z,0.52
2022-09-17T14:04:48.286Z,0.40
2022-09-17T14:05:50.760Z,0.75
2022-09-17T14:06:53.540Z,0.50
2022-09-17T14:08:12.716Z,0.65
2022-09-17T14:09:36.002Z,0.70
2022-09-17T14:10:43.265Z,0.60
2022-09-17T14:11:44.853Z,0.77
2022-09-17T14:12:58.149Z,0.93
2022-09-17T14:14:42.252Z,1.25
2022-09-17T14:16:01.698Z,1.10
2022-09-17T14:17:04.461Z,0.98
2022-09-17T14:18:34.582Z,1.23
2022-09-17T14:19:51.472Z,1.30
2022-09-17T14:20:55.263Z,1.15
2022-09-17T14:22:01.555Z,1.05
2022-09-17T14:23:03.548Z,0.85
2022-09-17T14:24:20.658Z,0.70
2022-09-17T14:25:29.466Z,1.10
2022-09-17T14:26:44.289Z,1.10
2022-09-17T14:27:54.826Z,1.02
2022-09-17T14:29:02.418Z,0.88
2022-09-17T14:30:17.557Z,0.93
2022-09-17T14:31:22.618Z,1.00
2022-09-17T14:32:29.995Z,0.95
2022-09-17T14:33:32.144Z,1.00
2022-09-17T14:34:34.748Z,1.45
2022-09-17T14:35:39.351Z,0.80
2022-09-17T14:36:43.005Z,0.82
2022-09-17T14:37:47.171Z,0.98
2022-09-17T14:38:50.724Z,1.13
2022-09-17T14:39:53.749Z,0.93
2022-09-17T14:40:59.999Z,0.80
2022-09-17T14:42:02.893Z,0.57
2022-09-17T14:43:04.479Z,0.85